Time;durP1;ratioP1;P1;durP2;ratioP2;P2;SDS_P1;SDS_P2;PMS_P1;PMS_P2;Temp;Humidity;BMP_temperature;BMP_pressure;BME280_temperature;BME280_humidity;BME280_pressure;Samples;Min_cycle;Max_cycle;Signal;HPM_P1;HPM_P2
2021/09/16 00:01:13;;;;;;;3.80;1.98;;;;;;;21.62;58.08;101277.59;5075108;28;20521;-54
2021/09/16 00:03:39;;;;;;;3.70;2.30;;;;;;;21.63;58.13;101287.50;5084020;28;20451;-56
2021/09/16 00:06:04;;;;;;;4.45;2.10;;;;;;;21.61;58.05;101284.97;5080432;28;20024;-54
2021/09/16 00:08:30;;;;;;;3.50;2.30;;;;;;;21.62;58.14;101283.94;5076022;28;20027;-54
2021/09/16 00:10:55;;;;;;;5.85;2.10;;;;;;;21.61;57.79;101278.69;5078512;28;20017;-57
2021/09/16 00:13:21;;;;;;;3.45;2.17;;;;;;;21.61;57.85;101284.97;5078559;28;20384;-57
2021/09/16 00:15:47;;;;;;;4.25;2.38;;;;;;;21.61;57.79;101268.56;5079933;28;20074;-54
2021/09/16 00:18:12;;;;;;;4.57;2.10;;;;;;;21.61;57.94;101270.47;5082745;28;20020;-53
2021/09/16 00:20:38;;;;;;;3.75;2.00;;;;;;;21.60;57.86;101261.44;5076896;28;20034;-53
2021/09/16 00:23:04;;;;;;;3.35;2.08;;;;;;;21.61;57.87;101262.25;5081408;28;20045;-55
2021/09/16 00:25:29;;;;;;;5.38;2.30;;;;;;;21.60;57.66;101258.69;5081534;28;20031;-54
2021/09/16 00:27:55;;;;;;;4.15;2.30;;;;;;;21.60;57.63;101255.13;5079625;28;20023;-56
2021/09/16 00:30:20;;;;;;;3.10;2.00;;;;;;;21.60;57.88;101257.88;5082409;28;20475;-56
2021/09/16 00:32:46;;;;;;;5.10;2.28;;;;;;;21.59;57.54;101250.72;5077106;28;20028;-56
2021/09/16 00:35:12;;;;;;;3.50;2.10;;;;;;;21.60;57.49;101255.13;5084673;28;20100;-55
2021/09/16 00:37:38;;;;;;;4.28;2.33;;;;;;;21.59;57.43;101257.00;5083811;28;20027;-54
2021/09/16 00:40:05;;;;;;;4.70;2.15;;;;;;;21.60;57.38;101263.34;5081689;28;20063;-53
2021/09/16 00:42:31;;;;;;;2.80;1.88;;;;;;;21.59;57.61;101264.41;5074916;28;20017;-55
2021/09/16 00:44:56;;;;;;;4.05;2.28;;;;;;;21.59;57.73;101264.41;5080564;28;20683;-54
2021/09/16 00:47:22;;;;;;;4.05;1.95;;;;;;;21.59;57.52;101267.97;5079487;28;20024;-58
2021/09/16 00:49:48;;;;;;;3.28;2.03;;;;;;;21.58;57.59;101260.81;5081381;28;20024;-55
2021/09/16 00:52:14;;;;;;;3.25;1.73;;;;;;;21.59;57.46;101267.13;5083055;28;20020;-56
2021/09/16 00:54:43;;;;;;;5.35;2.03;;;;;;;21.58;57.61;101263.56;5078748;28;20071;-53
2021/09/16 00:57:10;;;;;;;4.80;1.92;;;;;;;21.58;57.45;101262.75;5081960;28;20039;-57
2021/09/16 00:59:36;;;;;;;3.60;1.77;;;;;;;21.58;57.73;101260.81;5072045;28;20052;-54
2021/09/16 01:02:02;;;;;;;4.57;2.00;;;;;;;21.57;57.55;101259.19;5074380;28;21128;-53
2021/09/16 01:04:29;;;;;;;3.25;1.90;;;;;;;21.57;57.59;101253.69;5084496;28;20119;-55
2021/09/16 01:06:56;;;;;;;2.83;1.80;;;;;;;21.58;57.59;101260.00;5086867;28;20107;-53
2021/09/16 01:09:22;;;;;;;4.00;2.00;;;;;;;21.57;57.40;101253.69;5085854;28;20036;-53
2021/09/16 01:11:48;;;;;;;3.33;1.92;;;;;;;21.57;57.49;101250.13;5080991;28;20054;-55
2021/09/16 01:14:23;;;;;;;4.50;1.80;;;;;;;21.57;57.56;101241.94;5085661;28;20032;-57
2021/09/16 01:16:50;;;;;;;4.47;2.10;;;;;;;21.56;57.29;101249.28;5082604;28;20024;-52
2021/09/16 01:19:15;;;;;;;4.15;2.08;;;;;;;21.56;57.37;101246.53;5083165;28;20533;-56
2021/09/16 01:21:41;;;;;;;5.15;1.92;;;;;;;21.56;57.28;101257.50;5086344;28;20027;-54
2021/09/16 01:24:07;;;;;;;5.00;2.20;;;;;;;21.57;57.31;101252.88;5081914;28;20016;-54
2021/09/16 01:26:32;;;;;;;3.65;2.03;;;;;;;21.56;57.68;101242.97;5084265;28;20487;-57
2021/09/16 01:28:58;;;;;;;3.55;2.00;;;;;;;21.56;57.40;101241.06;5084922;28;20059;-56
2021/09/16 01:31:38;;;;;;;3.03;1.80;;;;;;;21.56;57.11;101241.06;5086773;28;20026;-54
2021/09/16 01:34:05;;;;;;;2.72;1.65;;;;;;;21.56;57.07;101240.25;5078782;28;20036;-56
2021/09/16 01:36:31;;;;;;;4.85;1.83;;;;;;;21.57;57.46;101222.78;5083319;28;20031;-55
2021/09/16 01:38:57;;;;;;;4.05;1.92;;;;;;;21.55;57.41;101222.19;5086221;28;20008;-55
2021/09/16 01:41:23;;;;;;;3.65;1.83;;;;;;;21.55;57.41;101224.91;5083095;28;20035;-56
2021/09/16 01:43:49;;;;;;;2.40;1.40;;;;;;;21.56;57.40;101223.81;5084234;28;20029;-53
2021/09/16 01:46:14;;;;;;;4.22;2.20;;;;;;;21.55;57.13;101222.19;5083194;28;20028;-56
2021/09/16 01:48:40;;;;;;;3.88;2.15;;;;;;;21.55;57.40;101222.19;5085855;28;20027;-55
2021/09/16 01:51:05;;;;;;;4.90;2.15;;;;;;;21.55;57.52;101217.53;5074291;28;20020;-56
2021/09/16 01:53:31;;;;;;;4.15;2.00;;;;;;;21.55;57.56;101212.06;5083118;28;20020;-53
2021/09/16 01:55:57;;;;;;;4.18;2.22;;;;;;;21.54;57.22;101213.13;5087878;28;20034;-52
2021/09/16 01:58:22;;;;;;;3.00;1.77;;;;;;;21.54;57.20;101220.50;5086019;28;20020;-55
2021/09/16 02:00:48;;;;;;;4.80;1.95;;;;;;;21.55;57.32;101219.44;5081139;28;20026;-53
2021/09/16 02:03:13;;;;;;;3.47;1.80;;;;;;;21.54;57.34;101217.75;5087248;28;20406;-55
2021/09/16 02:05:39;;;;;;;2.95;1.60;;;;;;;21.54;57.35;101218.59;5079370;28;20170;-54
2021/09/16 02:08:05;;;;;;;3.10;1.70;;;;;;;21.54;56.93;101210.41;5083251;28;20363;-56
2021/09/16 02:10:31;;;;;;;3.60;1.77;;;;;;;21.54;56.99;101212.28;5085787;28;20025;-56
2021/09/16 02:12:56;;;;;;;3.90;1.83;;;;;;;21.54;57.03;101195.88;5083113;28;20026;-53
2021/09/16 02:15:22;;;;;;;3.13;2.00;;;;;;;21.54;56.96;101193.13;5084916;28;21245;-54
2021/09/16 02:17:48;;;;;;;2.97;1.70;;;;;;;21.54;56.99;101187.66;5079711;28;20032;-53
2021/09/16 02:20:13;;;;;;;4.53;1.80;;;;;;;21.51;57.18;101173.41;5084124;28;20028;-55
2021/09/16 02:22:39;;;;;;;3.38;2.00;;;;;;;21.49;57.03;101167.34;5086306;28;20020;-58
2021/09/16 02:25:05;;;;;;;3.53;2.00;;;;;;;21.54;57.14;101179.44;5076057;28;20027;-56
2021/09/16 02:27:30;;;;;;;3.03;1.90;;;;;;;21.54;56.88;101176.72;5083206;28;20027;-58
2021/09/16 02:29:56;;;;;;;3.65;1.80;;;;;;;21.52;57.10;101174.22;5081557;28;20030;-56
2021/09/16 02:32:21;;;;;;;3.22;1.70;;;;;;;21.53;57.14;101178.63;5081365;28;20048;-54
2021/09/16 02:34:47;;;;;;;3.00;1.80;;;;;;;21.53;56.81;101167.69;5083363;28;20035;-54
2021/09/16 02:37:13;;;;;;;3.50;1.83;;;;;;;21.54;56.72;101171.25;5085526;28;20363;-55
2021/09/16 02:39:38;;;;;;;3.17;2.00;;;;;;;21.54;56.85;101176.72;5080910;28;20024;-56
2021/09/16 02:42:04;;;;;;;2.95;1.77;;;;;;;21.54;56.93;101182.19;5083028;28;20035;-56
2021/09/16 02:44:30;;;;;;;4.93;2.00;;;;;;;21.54;57.12;101182.19;5079758;28;20085;-55
2021/09/16 02:46:55;;;;;;;5.80;1.80;;;;;;;21.54;56.75;101188.50;5086764;28;20012;-53
2021/09/16 02:49:21;;;;;;;3.42;1.67;;;;;;;21.54;56.78;101179.44;5083880;28;20051;-59
2021/09/16 02:51:46;;;;;;;4.05;1.85;;;;;;;21.55;57.04;101178.41;5078538;28;20044;-56
2021/09/16 02:54:12;;;;;;;5.43;2.10;;;;;;;21.54;56.95;101183.03;5082845;28;20024;-54
2021/09/16 02:56:38;;;;;;;3.95;2.28;;;;;;;21.54;57.02;101183.03;5083841;28;20150;-53
2021/09/16 02:59:03;;;;;;;4.18;1.95;;;;;;;21.54;56.73;101187.66;5079022;28;20081;-52
2021/09/16 03:01:29;;;;;;;4.07;2.05;;;;;;;21.54;57.07;101193.13;5080283;28;20454;-55
2021/09/16 03:03:55;;;;;;;4.65;1.73;;;;;;;21.52;56.90;101186.00;5079860;28;20032;-56
2021/09/16 03:06:20;;;;;;;4.53;2.33;;;;;;;21.52;56.87;101180.53;5080840;28;20028;-55
2021/09/16 03:08:47;;;;;;;4.93;2.10;;;;;;;21.54;57.01;101183.03;5085801;28;20028;-56
2021/09/16 03:11:13;;;;;;;5.35;2.50;;;;;;;21.54;56.99;101182.19;5080322;28;20468;-53
2021/09/16 03:13:38;;;;;;;5.93;1.90;;;;;;;21.53;56.86;101192.31;5083342;28;20020;-56
2021/09/16 03:16:04;;;;;;;3.20;2.00;;;;;;;21.53;56.69;101192.31;5076449;28;20019;-56
2021/09/16 03:18:31;;;;;;;3.70;2.13;;;;;;;21.52;56.94;101179.69;5084773;28;20036;-53
2021/09/16 03:20:56;;;;;;;3.33;2.08;;;;;;;21.52;57.00;101179.69;5080988;28;20019;-55
2021/09/16 03:23:22;;;;;;;3.03;2.10;;;;;;;21.52;56.71;101191.47;5083860;28;20425;-55
2021/09/16 03:25:48;;;;;;;6.32;2.53;;;;;;;21.52;57.01;101188.75;5077657;28;20028;-54
2021/09/16 03:28:13;;;;;;;5.65;2.30;;;;;;;21.52;56.88;101177.78;5081190;28;20126;-55
2021/09/16 03:30:39;;;;;;;4.63;2.33;;;;;;;21.52;57.08;101174.22;5083322;28;20028;-55
2021/09/16 03:33:04;;;;;;;4.13;1.98;;;;;;;21.51;56.76;101176.13;5086943;28;20099;-56
2021/09/16 03:35:30;;;;;;;3.72;2.20;;;;;;;21.51;56.91;101164.34;5081212;28;20070;-55
2021/09/16 03:37:56;;;;;;;3.78;2.03;;;;;;;21.51;56.81;101164.34;5079121;28;20012;-55
2021/09/16 03:40:21;;;;;;;3.35;1.90;;;;;;;21.51;56.93;101162.47;5080061;28;20020;-52
2021/09/16 03:42:50;;;;;;;4.32;2.13;;;;;;;21.50;56.94;101166.25;5083973;28;20505;-56
2021/09/16 03:45:16;;;;;;;3.85;1.90;;;;;;;21.50;57.11;101155.31;5078338;28;20108;-53
2021/09/16 03:47:42;;;;;;;4.80;1.92;;;;;;;21.50;56.84;101159.94;5082994;28;20017;-55
2021/09/16 03:50:08;;;;;;;3.83;2.03;;;;;;;21.50;56.99;101155.31;5071477;28;20042;-56
2021/09/16 03:52:33;;;;;;;3.35;2.00;;;;;;;21.50;56.92;101162.69;5081105;28;20032;-54
2021/09/16 03:54:59;;;;;;;3.70;2.03;;;;;;;21.49;56.82;101155.56;5078140;28;20020;-53
2021/09/16 03:57:25;;;;;;;2.75;1.80;;;;;;;21.49;56.71;101158.28;5083031;28;20059;-54
2021/09/16 03:59:50;;;;;;;3.10;1.80;;;;;;;21.49;57.17;101159.13;5077451;28;20028;-56
2021/09/16 04:02:16;;;;;;;4.13;2.13;;;;;;;21.49;56.82;101158.28;5082338;28;20016;-55
2021/09/16 04:04:41;;;;;;;4.47;2.53;;;;;;;21.49;57.15;101159.13;5083761;28;20040;-58
2021/09/16 04:07:07;;;;;;;3.63;1.92;;;;;;;21.49;57.02;101153.66;5086181;28;20016;-58
2021/09/16 04:09:33;;;;;;;3.00;1.80;;;;;;;21.48;56.89;101142.94;5077367;28;20685;-54
2021/09/16 04:11:59;;;;;;;4.28;2.00;;;;;;;21.47;57.05;101138.53;5079718;28;20023;-56
2021/09/16 04:14:25;;;;;;;4.28;1.63;;;;;;;21.48;56.86;101135.56;5080825;28;20115;-52
2021/09/16 04:16:52;;;;;;;3.80;2.10;;;;;;;21.48;56.72;101132.81;5085259;28;20095;-55
2021/09/16 04:19:18;;;;;;;5.18;2.10;;;;;;;21.48;57.06;101127.34;5078741;28;20070;-56
2021/09/16 04:21:43;;;;;;;4.50;2.30;;;;;;;21.48;56.79;101135.56;5083282;28;20157;-55
2021/09/16 04:24:13;;;;;;;3.83;2.05;;;;;;;21.48;56.91;101130.06;5071982;28;20823;-55
2021/09/16 04:26:41;;;;;;;3.38;2.00;;;;;;;21.48;56.87;101123.78;5081191;28;20032;-54
2021/09/16 04:29:06;;;;;;;3.67;1.60;;;;;;;21.46;57.01;101123.19;5080415;28;20020;-53
2021/09/16 04:31:32;;;;;;;3.72;2.00;;;;;;;21.47;56.93;101117.47;5082452;28;20028;-53
2021/09/16 04:33:57;;;;;;;5.55;2.45;;;;;;;21.47;57.07;101119.41;5078958;28;20024;-55
2021/09/16 04:36:23;;;;;;;3.55;1.88;;;;;;;21.47;56.96;101122.13;5082411;28;20068;-55
2021/09/16 04:38:49;;;;;;;3.35;2.08;;;;;;;21.48;56.94;101112.84;5077156;28;20024;-55
2021/09/16 04:41:14;;;;;;;2.70;2.00;;;;;;;21.46;57.13;101110.34;5080438;28;20015;-53
2021/09/16 04:43:40;;;;;;;4.07;2.10;;;;;;;21.46;56.99;101102.16;5083142;28;20024;-55
2021/09/16 04:46:05;;;;;;;4.38;1.77;;;;;;;21.45;57.03;101105.13;5080340;28;20024;-54
2021/09/16 04:48:31;;;;;;;6.45;2.50;;;;;;;21.45;57.05;101110.59;5081730;28;20480;-56
2021/09/16 04:50:56;;;;;;;2.88;1.80;;;;;;;21.45;57.21;101105.13;5086404;28;20019;-57
2021/09/16 04:53:22;;;;;;;6.18;2.28;;;;;;;21.45;57.06;101108.69;5078792;28;20507;-53
2021/09/16 04:55:48;;;;;;;4.40;2.00;;;;;;;21.43;56.89;101105.34;5083459;28;20028;-53
2021/09/16 04:58:14;;;;;;;3.00;1.80;;;;;;;21.44;57.14;101104.28;5074414;28;20474;-56
2021/09/16 05:00:39;;;;;;;3.08;1.80;;;;;;;21.43;57.06;101101.78;5083702;28;20028;-54
2021/09/16 05:03:05;;;;;;;3.25;1.85;;;;;;;21.43;57.34;101110.81;5080391;28;20030;-55
2021/09/16 05:05:32;;;;;;;3.88;2.00;;;;;;;21.42;57.24;101109.16;5082539;28;20031;-54
2021/09/16 05:07:58;;;;;;;3.05;1.80;;;;;;;21.42;57.01;101103.69;5077739;28;20027;-55
2021/09/16 05:10:23;;;;;;;3.45;1.80;;;;;;;21.43;57.13;101115.47;5081225;28;20028;-56
2021/09/16 05:12:49;;;;;;;3.33;1.80;;;;;;;21.42;56.90;101109.16;5075390;28;20017;-53
2021/09/16 05:15:15;;;;;;;3.67;2.00;;;;;;;21.42;57.23;101109.16;5085321;28;20861;-55
2021/09/16 05:17:40;;;;;;;3.95;1.90;;;;;;;21.42;57.17;101111.91;5081818;28;20052;-55
2021/09/16 05:20:06;;;;;;;4.03;2.78;;;;;;;21.41;56.95;101110.25;5079231;28;20470;-54
2021/09/16 05:22:32;;;;;;;5.10;1.95;;;;;;;21.41;57.15;101106.69;5080450;28;20047;-57
2021/09/16 05:24:58;;;;;;;3.67;2.00;;;;;;;21.42;56.90;101102.88;5077804;28;20028;-58
2021/09/16 05:27:23;;;;;;;4.38;1.90;;;;;;;21.41;57.12;101107.50;5079327;28;20036;-56
2021/09/16 05:29:49;;;;;;;2.47;1.92;;;;;;;21.40;56.92;101111.28;5084482;28;20020;-52
2021/09/16 05:32:15;;;;;;;4.13;1.90;;;;;;;21.40;56.87;101116.75;5071717;28;20418;-56
2021/09/16 05:34:40;;;;;;;3.30;1.80;;;;;;;21.41;56.95;101107.50;5081951;28;20028;-57
2021/09/16 05:37:06;;;;;;;3.58;2.00;;;;;;;21.41;57.40;101109.41;5076891;28;20082;-56
2021/09/16 05:39:32;;;;;;;3.53;1.75;;;;;;;21.40;57.08;101122.25;5079592;28;20064;-57
2021/09/16 05:41:57;;;;;;;4.38;1.85;;;;;;;21.39;57.18;101108.81;5079811;28;20103;-55
2021/09/16 05:44:23;;;;;;;3.10;1.65;;;;;;;21.40;57.04;101105.00;5082655;28;20024;-55
2021/09/16 05:46:48;;;;;;;3.47;1.90;;;;;;;21.40;57.27;101105.00;5079209;28;20020;-55
2021/09/16 05:49:14;;;;;;;3.45;1.83;;;;;;;21.40;57.33;101105.81;5079828;28;20019;-55
2021/09/16 05:51:40;;;;;;;3.60;2.08;;;;;;;21.39;57.02;101104.16;5083903;28;20058;-54
2021/09/16 05:54:05;;;;;;;4.07;1.75;;;;;;;21.39;57.10;101100.63;5083429;28;20020;-58
2021/09/16 05:56:31;;;;;;;3.13;1.88;;;;;;;21.38;56.98;101097.06;5084590;28;20567;-53
2021/09/16 05:58:56;;;;;;;4.32;1.83;;;;;;;21.38;56.94;101091.59;5075263;28;20022;-55
2021/09/16 06:01:22;;;;;;;4.13;1.70;;;;;;;21.39;56.89;101093.22;5083387;28;20107;-53
2021/09/16 06:03:48;;;;;;;5.40;1.80;;;;;;;21.40;57.29;101094.06;5087837;28;20023;-56
2021/09/16 06:06:13;;;;;;;2.70;1.70;;;;;;;21.39;56.91;101087.75;5074929;28;20029;-54
2021/09/16 06:08:39;;;;;;;5.40;2.00;;;;;;;21.39;57.27;101090.50;5085171;28;20073;-56
2021/09/16 06:11:06;;;;;;;2.20;1.50;;;;;;;21.39;57.07;101098.69;5080520;28;20024;-52
2021/09/16 06:13:31;;;;;;;3.75;2.10;;;;;;;21.40;57.26;101094.06;5083369;28;20032;-53
2021/09/16 06:15:57;;;;;;;4.35;1.70;;;;;;;21.40;57.06;101099.53;5082943;28;20542;-52
2021/09/16 06:18:22;;;;;;;3.55;1.88;;;;;;;21.38;56.96;101091.59;5085632;28;20110;-56
2021/09/16 06:20:49;;;;;;;3.40;1.65;;;;;;;21.39;56.85;101093.22;5080394;28;20031;-55
2021/09/16 06:23:16;;;;;;;3.20;1.65;;;;;;;21.39;57.10;101092.41;5083004;28;20027;-55
2021/09/16 06:25:42;;;;;;;3.35;1.88;;;;;;;21.39;57.11;101090.50;5077588;28;20020;-53
2021/09/16 06:28:07;;;;;;;3.75;1.90;;;;;;;21.39;57.31;101089.66;5083414;28;20070;-52
2021/09/16 06:30:33;;;;;;;4.25;1.80;;;;;;;21.38;57.31;101091.59;5084351;28;20029;-55
2021/09/16 06:32:58;;;;;;;2.40;1.70;;;;;;;21.37;56.98;101083.56;5081979;28;20028;-54
2021/09/16 06:35:24;;;;;;;3.15;1.48;;;;;;;21.37;57.15;101084.41;5083244;28;20027;-57
2021/09/16 06:37:50;;;;;;;3.35;1.70;;;;;;;21.38;57.11;101086.09;5079720;28;20360;-57
2021/09/16 06:40:15;;;;;;;3.15;1.60;;;;;;;21.39;57.18;101093.22;5075991;28;20015;-58
2021/09/16 06:42:41;;;;;;;4.22;2.10;;;;;;;21.39;57.23;101090.50;5085694;28;20617;-52
2021/09/16 06:45:08;;;;;;;2.78;1.60;;;;;;;21.39;57.35;101087.75;5080865;28;20032;-53
2021/09/16 06:47:34;;;;;;;3.42;1.55;;;;;;;21.39;57.07;101086.94;5082940;28;20662;-55
2021/09/16 06:49:59;;;;;;;2.92;1.70;;;;;;;21.38;56.94;101091.59;5076750;28;20028;-54
2021/09/16 06:52:25;;;;;;;3.55;1.58;;;;;;;21.39;57.05;101090.50;5081056;28;20030;-53
2021/09/16 06:54:51;;;;;;;4.72;1.80;;;;;;;21.40;57.20;101094.88;5080952;28;20024;-54
2021/09/16 06:57:17;;;;;;;2.50;1.60;;;;;;;21.39;56.93;101090.50;5082117;28;20024;-53
2021/09/16 06:59:43;;;;;;;3.45;1.67;;;;;;;21.40;57.15;101089.41;5078420;28;20029;-54
2021/09/16 07:02:08;;;;;;;3.95;1.83;;;;;;;21.40;57.26;101088.59;5081495;28;20069;-56
2021/09/16 07:04:34;;;;;;;3.35;1.60;;;;;;;21.39;57.45;101093.22;5084410;28;20024;-57
2021/09/16 07:07:03;;;;;;;3.30;1.60;;;;;;;21.39;56.96;101093.22;5081139;28;20028;-53
2021/09/16 07:09:33;;;;;;;3.95;1.73;;;;;;;21.39;57.20;101090.50;5082492;28;20021;-56
2021/09/16 07:11:58;;;;;;;3.22;1.50;;;;;;;21.39;57.10;101087.75;5076069;28;20065;-53
2021/09/16 07:14:26;;;;;;;4.03;1.63;;;;;;;21.41;56.98;101095.75;5075446;28;20113;-53
2021/09/16 07:16:53;;;;;;;4.03;1.77;;;;;;;21.39;57.17;101090.50;5086519;28;20532;-53
2021/09/16 07:19:19;;;;;;;3.13;1.65;;;;;;;21.40;57.17;101088.59;5079888;28;20036;-58
2021/09/16 07:21:51;;;;;;;3.10;1.60;;;;;;;21.40;57.20;101094.88;5085577;28;20157;-55
2021/09/16 07:24:17;;;;;;;5.35;2.20;;;;;;;21.38;57.13;101096.19;5078647;28;20069;-57
2021/09/16 07:26:46;;;;;;;4.30;1.70;;;;;;;21.41;57.26;101093.00;5082881;28;20118;-55
2021/09/16 07:29:11;;;;;;;2.90;1.60;;;;;;;21.40;57.37;101089.41;5081693;28;20028;-58
2021/09/16 07:31:37;;;;;;;4.90;1.90;;;;;;;21.41;57.29;101096.56;5081978;28;20028;-55
2021/09/16 07:34:03;;;;;;;2.47;1.60;;;;;;;21.41;57.12;101099.31;5079350;28;20023;-55
2021/09/16 07:36:28;;;;;;;2.15;1.40;;;;;;;21.40;57.32;101097.63;5082665;28;20032;-53
2021/09/16 07:38:54;;;;;;;3.88;1.67;;;;;;;21.41;57.06;101099.31;5077229;28;20049;-54
2021/09/16 07:41:20;;;;;;;4.00;1.80;;;;;;;21.41;57.11;101096.56;5081776;28;20039;-55
2021/09/16 07:43:45;;;;;;;2.88;1.58;;;;;;;21.42;56.96;101095.47;5083368;28;20028;-54
2021/09/16 07:46:11;;;;;;;2.33;1.70;;;;;;;21.40;57.02;101094.88;5080328;28;20020;-56
2021/09/16 07:48:36;;;;;;;2.10;1.40;;;;;;;21.42;57.12;101087.28;5080017;28;20016;-57
2021/09/16 07:51:02;;;;;;;3.42;1.50;;;;;;;21.41;57.10;101088.34;5076562;28;20108;-56
2021/09/16 07:53:30;;;;;;;2.63;1.50;;;;;;;21.42;57.36;101089.19;5081463;28;20020;-55
2021/09/16 07:55:56;;;;;;;4.65;1.70;;;;;;;21.41;57.22;101082.88;5079688;28;20020;-53
2021/09/16 07:58:22;;;;;;;3.80;1.70;;;;;;;21.41;57.16;101088.34;5081345;28;20016;-55
2021/09/16 08:00:48;;;;;;;2.75;1.80;;;;;;;21.42;57.19;101097.38;5078714;28;20020;-55
2021/09/16 08:03:13;;;;;;;3.75;1.65;;;;;;;21.42;57.17;101091.91;5083419;28;20678;-56
2021/09/16 08:05:40;;;;;;;4.35;1.65;;;;;;;21.42;57.58;101092.75;5075864;28;20058;-55
2021/09/16 08:08:06;;;;;;;3.78;1.60;;;;;;;21.42;57.19;101094.66;5081394;28;20035;-54
2021/09/16 08:10:31;;;;;;;4.32;1.63;;;;;;;21.41;57.49;101091.09;5082721;28;20034;-56
2021/09/16 08:12:57;;;;;;;2.47;1.60;;;;;;;21.43;57.78;101088.94;5080390;28;20020;-56
2021/09/16 08:15:23;;;;;;;3.60;1.60;;;;;;;21.42;57.45;101087.28;5079809;28;20016;-53
2021/09/16 08:17:48;;;;;;;4.03;1.58;;;;;;;21.43;57.84;101088.09;5081285;28;20499;-57
2021/09/16 08:20:14;;;;;;;4.68;2.10;;;;;;;21.43;57.61;101082.63;5083976;28;20020;-53
2021/09/16 08:22:40;;;;;;;2.97;1.50;;;;;;;21.42;57.63;101086.44;5086066;28;20043;-54
2021/09/16 08:25:08;;;;;;;4.55;1.70;;;;;;;21.42;57.55;101090.00;5082795;28;20517;-54
2021/09/16 08:27:35;;;;;;;3.47;1.63;;;;;;;21.42;57.58;101081.81;5076884;28;20101;-53
2021/09/16 08:30:01;;;;;;;3.63;1.45;;;;;;;21.43;57.61;101090.84;5072828;28;20102;-56
2021/09/16 08:32:27;;;;;;;3.75;1.52;;;;;;;21.43;57.57;101085.38;5084101;28;20482;-54
2021/09/16 08:34:52;;;;;;;5.13;1.88;;;;;;;21.43;57.91;101088.94;5079334;28;20035;-52
2021/09/16 08:37:18;;;;;;;3.97;1.55;;;;;;;21.42;57.76;101091.91;5080876;28;20514;-53
2021/09/16 08:39:44;;;;;;;4.57;1.73;;;;;;;21.43;57.97;101082.63;5070269;28;20060;-53
2021/09/16 08:42:11;;;;;;;3.05;1.70;;;;;;;21.43;57.82;101080.72;5082272;28;20056;-53
2021/09/16 08:44:36;;;;;;;3.17;1.45;;;;;;;21.44;57.90;101076.94;5083508;28;20135;-55
2021/09/16 08:47:02;;;;;;;3.85;1.40;;;;;;;21.42;57.99;101084.53;5080872;28;20386;-53
2021/09/16 08:49:28;;;;;;;2.88;1.67;;;;;;;21.44;57.96;101079.66;5080213;28;20020;-55
2021/09/16 08:51:54;;;;;;;2.67;1.70;;;;;;;21.44;58.09;101071.47;5086415;28;20224;-55
2021/09/16 08:54:21;;;;;;;3.15;1.50;;;;;;;21.40;58.25;101061.22;5077530;28;20025;-55
2021/09/16 08:56:47;;;;;;;3.10;1.63;;;;;;;21.45;58.12;101073.13;5075045;28;20070;-56
2021/09/16 08:59:13;;;;;;;2.60;1.55;;;;;;;21.45;57.99;101064.91;5076696;28;20016;-55
2021/09/16 09:01:38;;;;;;;2.80;1.70;;;;;;;21.45;58.11;101067.66;5080028;28;20077;-56
2021/09/16 09:04:04;;;;;;;3.70;2.10;;;;;;;21.45;58.34;101064.91;5079988;28;20020;-54
2021/09/16 09:06:36;;;;;;;2.60;1.80;;;;;;;21.45;58.27;101059.44;5083247;28;20035;-52
2021/09/16 09:09:15;;;;;;;3.75;1.65;;;;;;;21.46;58.32;101065.72;5075299;28;20024;-54
2021/09/16 09:12:02;;;;;;;4.57;1.77;;;;;;;21.47;58.28;101057.28;5082341;28;20028;-57
2021/09/16 09:14:37;;;;;;;4.38;1.55;;;;;;;21.46;58.22;101058.38;5080291;28;20024;-54
2021/09/16 09:17:16;;;;;;;3.03;1.40;;;;;;;21.46;58.23;101066.59;5079081;28;20020;-55
2021/09/16 09:19:42;;;;;;;3.08;1.70;;;;;;;21.46;58.22;101057.53;5083279;28;20047;-55
2021/09/16 09:22:08;;;;;;;4.10;1.55;;;;;;;21.46;58.40;101061.13;5079658;28;20467;-53
2021/09/16 09:24:35;;;;;;;2.05;1.40;;;;;;;21.46;58.44;101060.25;5082250;28;20367;-53
2021/09/16 09:27:16;;;;;;;3.97;1.65;;;;;;;21.45;58.58;101062.16;5077774;28;20669;-55
2021/09/16 09:29:42;;;;;;;3.65;1.77;;;;;;;21.47;58.56;101060.03;5076820;28;20472;-54
2021/09/16 09:32:07;;;;;;;2.88;1.50;;;;;;;21.48;58.50;101055.38;5087267;28;20035;-53
2021/09/16 09:34:35;;;;;;;2.97;1.70;;;;;;;21.47;58.77;101051.81;5082920;28;20580;-53
2021/09/16 09:37:13;;;;;;;3.25;1.60;;;;;;;21.47;58.75;101051.81;5077767;28;20012;-56
2021/09/16 09:39:40;;;;;;;2.58;1.52;;;;;;;21.47;58.85;101043.63;5079712;28;20058;-54
2021/09/16 09:42:28;;;;;;;2.78;1.60;;;;;;;21.47;58.79;101046.34;5084721;28;20023;-56
2021/09/16 09:45:08;;;;;;;4.55;1.70;;;;;;;21.49;58.55;101055.16;5086119;28;20119;-53
2021/09/16 09:47:38;;;;;;;2.90;1.48;;;;;;;21.49;58.94;101046.94;5087443;28;20458;-54
2021/09/16 09:50:15;;;;;;;3.17;1.60;;;;;;;21.49;58.77;101051.59;5077767;28;20470;-57
2021/09/16 09:52:41;;;;;;;4.05;1.95;;;;;;;21.50;58.91;101047.78;5086345;28;20067;-54
2021/09/16 09:55:15;;;;;;;2.70;1.52;;;;;;;21.49;58.87;101052.44;5077569;28;20048;-55
2021/09/16 09:57:41;;;;;;;3.95;1.67;;;;;;;21.49;58.97;101041.47;5081348;28;20024;-54
2021/09/16 10:00:08;;;;;;;2.42;1.50;;;;;;;21.50;58.98;101047.78;5079411;28;20038;-58
2021/09/16 10:02:50;;;;;;;3.55;1.63;;;;;;;21.49;59.17;101046.13;5082738;28;20052;-52
2021/09/16 10:05:21;;;;;;;2.47;1.63;;;;;;;21.48;59.20;101039.78;5085135;28;20051;-52
2021/09/16 10:07:48;;;;;;;2.45;1.60;;;;;;;21.48;59.14;101037.06;5079179;28;20053;-54
2021/09/16 10:10:14;;;;;;;2.97;1.65;;;;;;;21.49;59.19;101036.00;5083882;28;20131;-52
2021/09/16 10:12:42;;;;;;;3.28;1.73;;;;;;;21.50;59.19;101031.34;5081658;28;20020;-54
2021/09/16 10:15:11;;;;;;;3.00;1.70;;;;;;;21.51;59.00;101027.53;5083187;28;20523;-53
2021/09/16 10:17:38;;;;;;;3.72;2.10;;;;;;;21.51;59.13;101031.13;5083799;28;20048;-55
2021/09/16 10:20:05;;;;;;;3.25;2.08;;;;;;;21.50;59.32;101029.44;5079978;28;20023;-56
2021/09/16 10:22:31;;;;;;;3.83;1.85;;;;;;;21.52;59.31;101031.97;5081017;28;20021;-54
2021/09/16 10:24:59;;;;;;;3.70;1.52;;;;;;;21.52;59.52;101026.47;5054955;28;20020;-52
2021/09/16 10:27:37;;;;;;;2.75;1.48;;;;;;;21.54;59.40;101018.03;5080814;28;20489;-53
2021/09/16 10:30:23;;;;;;;2.78;1.52;;;;;;;21.56;59.42;101016.69;5088019;28;20016;-56
2021/09/16 10:33:07;;;;;;;2.95;1.58;;;;;;;21.58;59.31;101009.09;5080576;28;20111;-54
2021/09/16 10:35:35;;;;;;;2.78;1.55;;;;;;;21.59;59.16;101013.47;5081823;28;20024;-55
2021/09/16 10:38:22;;;;;;;4.45;1.70;;;;;;;21.61;59.22;101003.13;5074253;28;20020;-55
2021/09/16 10:40:50;;;;;;;4.43;1.95;;;;;;;21.62;59.51;101006.69;5081188;28;20047;-53
2021/09/16 10:43:21;;;;;;;3.35;1.70;;;;;;;21.62;59.46;100996.59;5084267;28;20112;-55
2021/09/16 10:45:47;;;;;;;2.63;1.48;;;;;;;21.62;59.28;101004.81;5079763;28;20081;-55
2021/09/16 10:48:13;;;;;;;2.33;1.40;;;;;;;21.63;59.41;101003.72;5082791;28;20382;-56
2021/09/16 10:50:45;;;;;;;2.80;1.75;;;;;;;21.63;59.75;101006.47;5085728;28;20770;-54
2021/09/16 10:53:34;;;;;;;2.95;1.40;;;;;;;21.65;59.67;101003.50;5081203;28;20051;-57
2021/09/16 10:56:02;;;;;;;2.85;1.50;;;;;;;21.64;59.55;101002.63;5082812;28;20502;-54
2021/09/16 10:58:51;;;;;;;2.30;1.63;;;;;;;21.66;59.85;100999.66;5056218;28;20748;-52
2021/09/16 11:01:49;;;;;;;2.60;1.48;;;;;;;21.66;59.88;100994.19;5064425;28;20380;-55
2021/09/16 11:04:58;;;;;;;2.55;1.42;;;;;;;21.66;60.03;100994.19;5064188;28;20384;-54
2021/09/16 11:07:38;;;;;;;3.70;1.55;;;;;;;21.67;60.01;100993.09;5039541;28;20033;-58
2021/09/16 11:10:16;;;;;;;3.58;1.40;;;;;;;21.70;60.03;100978.97;5016772;28;20052;-58
2021/09/16 11:12:41;;;;;;;2.30;1.48;;;;;;;21.70;59.93;100988.00;5018392;28;20397;-54
2021/09/16 11:15:11;;;;;;;2.42;1.48;;;;;;;21.71;59.91;100981.44;5024332;28;20021;-53
2021/09/16 11:17:37;;;;;;;4.82;1.48;;;;;;;21.71;60.05;100975.97;5023697;28;20428;-54
2021/09/16 11:20:14;;;;;;;2.80;1.42;;;;;;;21.71;60.30;100969.66;5064064;28;21024;-53
2021/09/16 11:22:51;;;;;;;3.53;1.70;;;;;;;21.72;60.37;100976.78;5125171;27;20321;-56
2021/09/16 11:25:39;;;;;;;3.38;1.50;;;;;;;21.71;60.61;100972.41;5064085;28;20380;-54